Latest Weather Observations for Gympie

IDQ60901

Issued at 2:45 pm EST Tuesday 16 September 2014 (issued every 10 minutes, with the page automatically refreshed every 10 minutes)

About weather observations | Map of Brisbane area stations | Latest observations for Brisbane area | Other Formats
Station Details ID: 040093 Name: GYMPIE Lat: -26.18 Lon: 152.64 Height: 64.5 m
Data from the previous 72 hours. | See also: Recent months at Gympie
Date/Time
EST
Tmp

°C
App
Tmp
°C
Dew
Point
°C
Rel
Hum
%
Delta-T

°C
Wind Press
QNH
hPa
Press
MSL
hPa
Rain
since
9 am
mm
Dir
 
Spd
km/h
Gust
km/h
Spd
kts
Gust
kts
16/02:30pm 28.3 25.1 8.6 29 10.8 N 15 30 8 16 1012.0 1011.8 0.0
16/02:00pm 28.1 24.1 8.9 30 10.6 N 20 32 11 17 1012.5 1012.3 0.0
16/01:30pm 28.1 25.8 10.3 33 10.0 N 13 22 7 12 1013.0 1012.8 0.0
16/01:00pm 27.3 25.4 11.7 37 9.0 N 13 26 7 14 1013.7 1013.5 0.0
16/12:30pm 26.9 24.0 12.2 40 8.5 N 19 26 10 14 1014.3 1014.2 0.0
16/12:00pm 26.2 24.1 12.3 42 8.0 NNW 15 30 8 16 1015.1 1015.0 0.0
16/11:30am 25.5 23.4 12.4 44 7.6 NNW 15 30 8 16 1015.9 1015.8 0.0
16/11:00am 25.0 24.0 13.5 48 6.7 NNW 11 20 6 11 1016.5 1016.4 0.0
16/10:30am 24.0 22.7 13.8 53 6.0 NNW 13 20 7 11 1017.2 1017.1 0.0
16/10:00am 23.3 21.6 13.5 54 5.7 NNW 15 24 8 13 1017.5 1017.4 0.0
16/09:30am 21.9 20.7 15.0 65 4.1 N 15 20 8 11 1017.7 1017.6 0.0
16/09:00am 21.2 20.0 15.1 68 3.6 NNW 15 24 8 13 1018.0 1017.9 0.0
16/08:30am 20.2 20.7 15.6 75 2.7 NNW 7 17 4 9 1018.2 1018.1 0.0
16/08:00am 16.9 18.6 15.1 89 1.0 CALM 0 0 0 0 1018.2 1018.1 0.0
16/07:30am 14.8 15.8 13.2 90 0.9 CALM 0 0 0 0 1018.2 1018.1 0.0
16/07:00am 13.0 13.8 12.4 96 0.3 CALM 0 0 0 0 1018.1 1018.0 0.0
16/06:30am 10.8 11.0 10.5 98 0.2 CALM 0 0 0 0 1017.8 1017.7 0.0
16/06:00am 9.9 9.8 9.6 98 0.1 CALM 0 0 0 0 1017.5 1017.4 0.0
16/05:30am 10.0 10.0 9.7 98 0.2 CALM 0 0 0 0 1017.3 1017.2 0.0
16/05:00am 9.8 9.7 9.5 98 0.1 CALM 0 0 0 0 1017.0 1016.9 0.0
16/04:30am 10.2 10.2 9.9 98 0.2 CALM 0 0 0 0 1016.8 1016.7 0.0
16/04:00am 10.0 9.9 9.5 97 0.2 CALM 0 0 0 0 1016.5 1016.4 0.0
16/03:30am 10.5 10.6 10.2 98 0.2 CALM 0 0 0 0 1016.5 1016.4 0.0
16/03:00am 11.0 11.2 10.5 97 0.3 CALM 0 0 0 0 1016.4 1016.3 0.0
16/02:30am 11.1 11.3 10.6 97 0.3 CALM 0 0 0 0 1016.4 1016.3 0.0
16/02:00am 11.0 11.1 10.1 94 0.5 CALM 0 0 0 0 1016.4 1016.3 0.0
16/01:30am 11.8 12.2 11.2 96 0.3 CALM 0 0 0 0 1016.6 1016.5 0.0
16/01:00am 11.8 12.1 11.0 95 0.4 CALM 0 0 0 0 1016.8 1016.7 0.0
16/12:30am 12.1 12.4 11.0 93 0.6 CALM 0 0 0 0 1017.0 1016.9 0.0
16/12:00am 12.8 13.3 11.7 93 0.6 N 0 0 0 0 1017.1 1017.0 0.0
 
Date/Time
EST
Tmp

°C
App
Tmp
°C
Dew
Point
°C
Rel
Hum
%
Delta-T

°C
Wind Press
QNH
hPa
Press
MSL
hPa
Rain
since
9 am
mm
Dir
 
Spd
km/h
Gust
km/h
Spd
kts
Gust
kts
15/11:30pm 12.9 13.5 11.8 93 0.6 CALM 0 0 0 0 1017.3 1017.2 0.0
15/11:00pm 13.7 14.5 12.4 92 0.7 CALM 0 0 0 0 1017.3 1017.2 0.0
15/10:30pm 14.1 14.9 12.5 90 0.9 NNW 0 0 0 0 1017.4 1017.3 0.0
15/10:00pm 14.3 15.0 12.3 88 1.1 CALM 0 0 0 0 1017.5 1017.4 0.0
15/09:30pm 15.0 15.7 12.3 84 1.5 W 0 0 0 0 1017.5 1017.4 0.0
15/09:00pm 16.1 17.0 13.0 82 1.7 CALM 0 0 0 0 1017.5 1017.4 0.0
15/08:30pm 16.5 17.3 12.5 77 2.2 CALM 0 2 0 1 1017.4 1017.3 0.0
15/08:00pm 18.0 18.3 13.3 74 2.7 N 4 6 2 3 1017.2 1017.1 0.0
15/07:30pm 18.3 18.5 13.2 72 2.9 SW 4 6 2 3 1016.9 1016.8 0.0
15/07:00pm 19.5 20.5 13.2 67 3.6 CALM 0 0 0 0 1016.4 1016.3 0.0
15/06:30pm 20.1 20.2 12.6 62 4.2 NE 4 7 2 4 1016.1 1016.0 0.0
15/06:00pm 21.2 20.9 12.6 58 4.9 NE 6 13 3 7 1015.8 1015.7 0.0
15/05:30pm 22.5 21.6 12.7 54 5.6 NE 9 17 5 9 1015.3 1015.2 0.0
15/05:00pm 23.9 22.9 13.4 51 6.1 NE 11 20 6 11 1015.0 1014.9 0.0
15/04:30pm 25.2 24.8 13.1 47 7.1 NE 7 13 4 7 1014.7 1014.6 0.0
15/04:00pm 25.2 24.0 10.3 39 8.3 NE 7 11 4 6 1014.5 1014.4 0.0
15/03:30pm 25.3 23.9 9.6 37 8.6 ENE 7 13 4 7 1014.5 1014.4 0.0
15/03:00pm 26.6 25.2 9.5 34 9.4 ESE 7 13 4 7 1014.5 1014.4 0.0
15/02:30pm 27.3 27.0 11.3 37 9.1 WSW 4 11 2 6 1014.7 1014.6 0.0
15/02:00pm 26.0 24.8 9.4 35 9.1 ESE 6 13 3 7 1015.1 1015.0 0.0
15/01:30pm 26.0 25.2 9.8 36 9.0 WSW 4 7 2 4 1015.6 1015.5 0.0
15/01:00pm 25.1 23.7 9.4 37 8.6 NNE 7 13 4 7 1016.0 1015.9 0.0
15/12:30pm 24.8 24.7 10.7 41 7.9 W 2 7 1 4 1016.6 1016.5 0.0
15/12:00pm 24.6 23.7 10.8 42 7.7 NE 6 9 3 5 1017.2 1017.1 0.0
15/11:30am 23.8 23.8 12.4 48 6.5 WNW 4 11 2 6 1017.9 1017.8 0.0
15/11:00am 23.1 22.5 11.8 49 6.4 N 6 9 3 5 1018.5 1018.4 0.0
15/10:30am 22.1 21.9 12.9 56 5.3 NNW 6 13 3 7 1019.1 1019.0 0.0
15/10:00am 20.8 21.8 14.2 66 3.8 WSW 2 6 1 3 1019.5 1019.4 0.0
15/09:30am 19.2 20.0 13.6 70 3.2 SSW 2 6 1 3 1019.8 1019.7 0.0
15/09:00am 17.4 18.4 13.3 77 2.3 CALM 0 2 0 1 1020.1 1020.0 0.0
15/08:30am 15.4 15.9 12.7 84 1.5 N 2 6 1 3 1020.3 1020.2 0.0
15/08:00am 12.6 13.4 12.4 99 0.1 CALM 0 2 0 1 1020.5 1020.4 0.0
15/07:30am 10.2 9.9 10.1 99 0.1 S 2 4 1 2 1020.5 1020.4 0.0
15/07:00am 9.3 9.1 9.2 99 0.0 CALM 0 0 0 0 1020.1 1020.0 0.0
15/06:30am 8.6 8.3 8.5 99 0.0 CALM 0 0 0 0 1019.7 1019.6 0.0
15/06:00am 8.2 7.8 8.1 99 0.0 CALM 0 0 0 0 1019.6 1019.5 0.0
15/05:30am 8.5 8.1 8.4 99 0.0 CALM 0 0 0 0 1019.2 1019.1 0.0
15/05:00am 8.3 7.9 8.2 99 0.0 CALM 0 0 0 0 1019.1 1019.0 0.0
15/04:30am 8.2 7.8 8.1 99 0.0 CALM 0 0 0 0 1019.0 1018.9 0.0
15/04:00am 8.6 8.3 8.5 99 0.0 CALM 0 0 0 0 1018.7 1018.6 0.0
15/03:30am 8.5 8.1 8.4 99 0.0 CALM 0 0 0 0 1018.9 1018.8 0.0
15/03:00am 8.8 8.5 8.5 98 0.1 CALM 0 0 0 0 1018.9 1018.8 0.0
15/02:30am 8.9 8.6 8.5 97 0.2 CALM 0 0 0 0 1019.0 1018.9 0.0
15/02:00am 9.2 8.9 8.7 97 0.2 CALM 0 0 0 0 1019.4 1019.3 0.0
15/01:30am 9.4 9.1 8.8 96 0.3 CALM 0 0 0 0 1019.5 1019.4 0.0
15/01:00am 10.0 9.9 9.5 97 0.2 CALM 0 0 0 0 1019.7 1019.6 0.0
15/12:30am 10.0 9.9 9.4 96 0.3 CALM 0 0 0 0 1020.0 1019.9 0.0
15/12:00am 10.4 10.3 9.6 95 0.4 CALM 0 0 0 0 1020.0 1019.9 0.0
 
Date/Time
EST
Tmp

°C
App
Tmp
°C
Dew
Point
°C
Rel
Hum
%
Delta-T

°C
Wind Press
QNH
hPa
Press
MSL
hPa
Rain
since
9 am
mm
Dir
 
Spd
km/h
Gust
km/h
Spd
kts
Gust
kts
14/11:30pm 10.7 10.7 9.8 94 0.5 CALM 0 0 0 0 1020.4 1020.3 0.0
14/11:00pm 11.2 11.3 10.3 94 0.5 CALM 0 0 0 0 1020.5 1020.4 0.0
14/10:30pm 11.4 11.6 10.5 94 0.5 CALM 0 0 0 0 1020.6 1020.5 0.0
14/10:00pm 12.6 13.1 11.5 93 0.6 CALM 0 0 0 0 1020.7 1020.6 0.0
14/09:30pm 12.8 13.2 11.2 90 0.8 CALM 0 0 0 0 1020.7 1020.6 0.0
14/09:00pm 13.2 13.6 11.4 89 1.0 CALM 0 0 0 0 1020.5 1020.4 0.0
14/08:30pm 14.4 14.9 11.7 84 1.5 CALM 0 0 0 0 1020.6 1020.5 0.0
14/08:00pm 15.3 16.0 12.1 81 1.7 CALM 0 0 0 0 1020.6 1020.5 0.0
14/07:30pm 16.2 16.4 12.0 76 2.3 SE 2 4 1 2 1020.3 1020.2 0.0
14/07:00pm 17.8 17.3 12.0 69 3.2 E 6 9 3 5 1020.1 1020.0 0.0
14/06:30pm 18.5 18.3 11.8 65 3.7 E 4 9 2 5 1019.9 1019.8 0.0
14/06:00pm 19.3 18.7 11.6 61 4.2 E 6 9 3 5 1019.6 1019.5 0.0
14/05:30pm 20.3 19.1 11.5 57 4.9 ESE 9 13 5 7 1019.6 1019.5 0.0
14/05:00pm 21.6 19.8 10.7 50 6.0 E 11 19 6 10 1019.3 1019.2 0.0
14/04:30pm 22.3 20.6 11.1 49 6.2 E 11 17 6 9 1019.0 1018.9 0.0
14/04:00pm 22.8 21.4 10.9 47 6.6 ESE 9 17 5 9 1018.7 1018.6 0.0
14/03:30pm 22.8 20.5 10.6 46 6.7 E 13 19 7 10 1018.7 1018.6 0.0
14/03:00pm 23.6 21.3 10.3 43 7.3 E 13 20 7 11 1018.8 1018.7 0.0
14/02:30pm 24.0 22.8 11.7 46 7.0 E 9 17 5 9 1018.7 1018.6 0.0
14/02:00pm 24.2 22.9 12.5 48 6.7 ENE 11 17 6 9 1018.8 1018.7 0.0
14/01:30pm 23.7 22.7 12.4 49 6.5 SE 9 17 5 9 1019.2 1019.1 0.0
14/01:00pm 22.9 22.5 12.5 52 5.9 ESE 6 11 3 6 1019.7 1019.6 0.0
14/12:30pm 22.2 21.3 12.5 54 5.5 SE 9 13 5 7 1020.3 1020.2 0.0
14/12:00pm 22.5 22.1 13.0 55 5.4 SE 7 11 4 6 1020.8 1020.7 0.0
14/11:30am 21.4 20.4 12.3 56 5.1 SSE 9 17 5 9 1021.3 1021.2 0.0
14/11:00am 23.3 22.8 13.8 55 5.5 ESE 9 19 5 10 1021.6 1021.5 0.0
14/10:30am 23.1 22.8 14.4 58 5.1 E 9 20 5 11 1022.1 1022.0 0.0
14/10:00am 21.4 21.5 13.8 62 4.4 S 6 9 3 5 1022.7 1022.6 0.0
14/09:30am 20.6 20.7 14.0 66 3.8 SSE 6 15 3 8 1023.2 1023.0 0.0
14/09:00am 19.9 19.9 14.3 70 3.2 SE 7 13 4 7 1023.3 1023.1 0.0
14/08:30am 18.9 19.0 14.4 75 2.6 SSE 7 9 4 5 1023.1 1022.9 0.0
14/08:00am 16.3 16.6 13.4 83 1.6 SE 4 6 2 3 1022.9 1022.8 0.0
14/07:30am 14.1 14.9 12.5 90 0.9 CALM 0 0 0 0 1022.8 1022.7 0.0
14/07:00am 11.4 11.7 10.9 97 0.3 CALM 0 0 0 0 1022.7 1022.6 0.0
14/06:30am 9.8 9.7 9.5 98 0.1 CALM 0 0 0 0 1022.3 1022.2 0.0
14/06:00am 9.5 9.3 9.2 98 0.1 CALM 0 0 0 0 1022.1 1022.0 0.0
14/05:30am 10.1 10.1 9.8 98 0.2 CALM 0 0 0 0 1021.5 1021.4 0.0
14/05:00am 9.7 9.5 9.2 97 0.2 CALM 0 0 0 0 1021.3 1021.2 0.0
14/04:30am 10.0 9.9 9.5 97 0.3 CALM 0 0 0 0 1021.2 1021.1 0.0
14/04:00am 10.7 10.8 10.2 97 0.3 CALM 0 0 0 0 1021.2 1021.1 0.0
14/03:30am 10.4 10.3 9.6 95 0.4 CALM 0 0 0 0 1021.3 1021.2 0.0
14/03:00am 11.1 11.3 10.6 97 0.3 CALM 0 0 0 0 1021.6 1021.5 0.0
14/02:30am 11.2 11.4 10.6 96 0.3 CALM 0 0 0 0 1021.7 1021.6 0.0
14/02:00am 11.5 11.7 10.7 95 0.4 CALM 0 0 0 0 1021.9 1021.8 0.0
14/01:30am 12.7 13.4 12.1 96 0.3 CALM 0 0 0 0 1022.4 1022.3 0.0
14/01:00am 11.7 11.6 10.9 95 0.4 SW 2 4 1 2 1022.7 1022.6 0.0
14/12:30am 12.9 13.1 12.0 94 0.5 S 2 6 1 3 1022.7 1022.6 0.0
14/12:00am 12.7 13.1 11.4 92 0.7 CALM 0 0 0 0 1023.2 1023.0 0.0
 
Date/Time
EST
Tmp

°C
App
Tmp
°C
Dew
Point
°C
Rel
Hum
%
Delta-T

°C
Wind Press
QNH
hPa
Press
MSL
hPa
Rain
since
9 am
mm
Dir
 
Spd
km/h
Gust
km/h
Spd
kts
Gust
kts
13/11:30pm 13.4 13.9 11.5 88 1.0 CALM 0 0 0 0 1023.5 1023.3 0.0
13/11:00pm 13.7 14.4 12.1 90 0.9 CALM 0 0 0 0 1023.6 1023.4 0.0
13/10:30pm 13.6 14.1 11.5 87 1.1 CALM 0 0 0 0 1023.5 1023.3 0.0
13/10:00pm 14.6 15.4 12.5 87 1.1 CALM 0 0 0 0 1023.5 1023.3 0.0
13/09:30pm 15.0 15.8 12.5 85 1.4 CALM 0 0 0 0 1023.7 1023.5 0.0
13/09:00pm 14.6 15.0 12.6 88 1.1 S 2 4 1 2 1023.6 1023.4 0.0
13/08:30pm 15.3 15.7 12.4 83 1.6 S 2 4 1 2 1023.6 1023.4 0.0
13/08:00pm 15.7 16.4 12.1 79 2.0 CALM 0 2 0 1 1023.4 1023.2 0.0
13/07:30pm 16.4 16.9 11.6 73 2.6 CALM 0 0 0 0 1023.1 1022.9 0.0
13/07:00pm 17.4 17.7 11.0 66 3.4 CALM 0 2 0 1 1022.8 1022.7 0.0
13/06:30pm 19.0 18.3 11.3 61 4.2 E 6 9 3 5 1022.2 1022.1 0.0
13/06:00pm 19.5 18.6 11.3 59 4.5 E 7 11 4 6 1021.9 1021.8 0.0
13/05:30pm 20.2 19.4 11.1 56 5.0 E 6 13 3 7 1021.8 1021.7 0.0
13/05:00pm 21.0 20.2 11.6 55 5.2 E 7 17 4 9 1021.7 1021.6 0.0
13/04:30pm 21.5 20.5 10.9 51 5.8 E 7 15 4 8 1021.5 1021.4 0.0
13/04:00pm 21.7 20.4 11.1 51 5.9 ESE 9 17 5 9 1021.6 1021.5 0.0
13/03:30pm 22.7 21.0 9.8 44 7.0 E 9 17 5 9 1021.4 1021.3 0.0
13/03:00pm 22.9 20.9 10.0 44 7.0 ESE 11 19 6 10 1021.5 1021.4 0.0

Latest Capital City Observations: Canberra | Sydney | Melbourne | Brisbane | Adelaide | Perth | Hobart | Darwin

Other Formats:

Comma delimited format used in spreadsheet applications
http://www.bom.gov.au/fwo/IDQ60901/IDQ60901.94566.axf

JavaScript Object Notation format (JSON) in row-major order
http://www.bom.gov.au/fwo/IDQ60901/IDQ60901.94566.json